sensor_id;sensor_type;location;lat;lon;timestamp;P1;durP1;ratioP1;P2;durP2;ratioP2
1452;SDS011;720;47.738;7.998;2024-02-14T00:01:33;3.13;;;1.60;;
1452;SDS011;720;47.738;7.998;2024-02-14T00:04:01;1.58;;;1.48;;
1452;SDS011;720;47.738;7.998;2024-02-14T00:06:28;2.75;;;1.75;;
1452;SDS011;720;47.738;7.998;2024-02-14T00:08:53;3.07;;;2.17;;
1452;SDS011;720;47.738;7.998;2024-02-14T00:11:19;2.17;;;1.87;;
1452;SDS011;720;47.738;7.998;2024-02-14T00:13:44;2.27;;;2.10;;
1452;SDS011;720;47.738;7.998;2024-02-14T00:16:10;2.33;;;2.13;;
1452;SDS011;720;47.738;7.998;2024-02-14T00:18:36;3.13;;;1.93;;
1452;SDS011;720;47.738;7.998;2024-02-14T00:21:02;1.70;;;1.60;;
1452;SDS011;720;47.738;7.998;2024-02-14T00:23:30;2.15;;;1.60;;
1452;SDS011;720;47.738;7.998;2024-02-14T00:25:56;1.52;;;1.38;;
1452;SDS011;720;47.738;7.998;2024-02-14T00:28:21;2.57;;;1.50;;
1452;SDS011;720;47.738;7.998;2024-02-14T00:30:48;1.83;;;1.73;;
1452;SDS011;720;47.738;7.998;2024-02-14T00:33:14;2.40;;;1.33;;
1452;SDS011;720;47.738;7.998;2024-02-14T00:35:41;2.00;;;1.90;;
1452;SDS011;720;47.738;7.998;2024-02-14T00:38:07;1.17;;;1.15;;
1452;SDS011;720;47.738;7.998;2024-02-14T00:40:33;1.33;;;1.23;;
1452;SDS011;720;47.738;7.998;2024-02-14T00:42:58;3.13;;;3.03;;
1452;SDS011;720;47.738;7.998;2024-02-14T00:45:24;1.30;;;1.20;;
1452;SDS011;720;47.738;7.998;2024-02-14T00:47:50;2.43;;;1.00;;
1452;SDS011;720;47.738;7.998;2024-02-14T00:50:15;4.27;;;1.30;;
1452;SDS011;720;47.738;7.998;2024-02-14T00:52:41;1.90;;;1.17;;
1452;SDS011;720;47.738;7.998;2024-02-14T00:55:08;1.40;;;1.30;;
1452;SDS011;720;47.738;7.998;2024-02-14T00:57:33;1.10;;;0.80;;
1452;SDS011;720;47.738;7.998;2024-02-14T00:59:59;1.20;;;1.00;;
1452;SDS011;720;47.738;7.998;2024-02-14T01:02:25;2.93;;;1.17;;
1452;SDS011;720;47.738;7.998;2024-02-14T01:04:51;0.73;;;0.73;;
1452;SDS011;720;47.738;7.998;2024-02-14T01:07:17;0.95;;;0.80;;
1452;SDS011;720;47.738;7.998;2024-02-14T01:09:42;3.30;;;0.93;;
1452;SDS011;720;47.738;7.998;2024-02-14T01:12:08;2.93;;;1.10;;
1452;SDS011;720;47.738;7.998;2024-02-14T01:14:34;3.43;;;1.73;;
1452;SDS011;720;47.738;7.998;2024-02-14T01:16:59;4.07;;;1.47;;
1452;SDS011;720;47.738;7.998;2024-02-14T01:19:25;1.67;;;1.37;;
1452;SDS011;720;47.738;7.998;2024-02-14T01:21:53;0.90;;;0.90;;
1452;SDS011;720;47.738;7.998;2024-02-14T01:24:20;1.35;;;1.25;;
1452;SDS011;720;47.738;7.998;2024-02-14T01:26:47;1.48;;;1.30;;
1452;SDS011;720;47.738;7.998;2024-02-14T01:29:12;2.53;;;1.13;;
1452;SDS011;720;47.738;7.998;2024-02-14T01:31:38;1.10;;;1.10;;
1452;SDS011;720;47.738;7.998;2024-02-14T01:34:04;1.70;;;1.00;;
1452;SDS011;720;47.738;7.998;2024-02-14T01:36:29;1.10;;;0.80;;
1452;SDS011;720;47.738;7.998;2024-02-14T01:38:55;3.63;;;1.07;;
1452;SDS011;720;47.738;7.998;2024-02-14T01:41:21;2.00;;;1.00;;
1452;SDS011;720;47.738;7.998;2024-02-14T01:43:47;1.95;;;1.15;;
1452;SDS011;720;47.738;7.998;2024-02-14T01:46:13;1.17;;;0.83;;
1452;SDS011;720;47.738;7.998;2024-02-14T01:48:39;0.97;;;0.97;;
1452;SDS011;720;47.738;7.998;2024-02-14T01:51:08;0.88;;;0.80;;
1452;SDS011;720;47.738;7.998;2024-02-14T01:53:36;0.90;;;0.90;;
1452;SDS011;720;47.738;7.998;2024-02-14T01:56:03;1.27;;;1.17;;
1452;SDS011;720;47.738;7.998;2024-02-14T01:58:30;1.17;;;0.98;;
1452;SDS011;720;47.738;7.998;2024-02-14T02:00:57;6.18;;;1.13;;
1452;SDS011;720;47.738;7.998;2024-02-14T02:03:23;1.00;;;1.00;;
1452;SDS011;720;47.738;7.998;2024-02-14T02:05:50;4.25;;;1.60;;
1452;SDS011;720;47.738;7.998;2024-02-14T02:08:17;1.23;;;1.13;;
1452;SDS011;720;47.738;7.998;2024-02-14T02:10:43;1.47;;;1.33;;
1452;SDS011;720;47.738;7.998;2024-02-14T02:13:08;1.03;;;0.90;;
1452;SDS011;720;47.738;7.998;2024-02-14T02:15:34;2.37;;;1.10;;
1452;SDS011;720;47.738;7.998;2024-02-14T02:18:00;1.90;;;1.30;;
1452;SDS011;720;47.738;7.998;2024-02-14T02:20:31;2.92;;;1.15;;
1452;SDS011;720;47.738;7.998;2024-02-14T02:22:57;1.30;;;1.20;;
1452;SDS011;720;47.738;7.998;2024-02-14T02:25:23;0.85;;;0.85;;
1452;SDS011;720;47.738;7.998;2024-02-14T02:27:52;3.47;;;1.52;;
1452;SDS011;720;47.738;7.998;2024-02-14T02:30:21;1.45;;;1.35;;
1452;SDS011;720;47.738;7.998;2024-02-14T02:32:47;0.93;;;0.93;;
1452;SDS011;720;47.738;7.998;2024-02-14T02:35:13;1.20;;;1.10;;
1452;SDS011;720;47.738;7.998;2024-02-14T02:37:39;2.07;;;1.97;;
1452;SDS011;720;47.738;7.998;2024-02-14T02:40:04;2.50;;;1.30;;
1452;SDS011;720;47.738;7.998;2024-02-14T02:42:30;1.98;;;1.35;;
1452;SDS011;720;47.738;7.998;2024-02-14T02:44:56;1.13;;;0.97;;
1452;SDS011;720;47.738;7.998;2024-02-14T02:47:22;1.20;;;1.10;;
1452;SDS011;720;47.738;7.998;2024-02-14T02:49:47;2.40;;;1.30;;
1452;SDS011;720;47.738;7.998;2024-02-14T02:52:13;1.07;;;1.07;;
1452;SDS011;720;47.738;7.998;2024-02-14T02:54:38;1.77;;;0.73;;
1452;SDS011;720;47.738;7.998;2024-02-14T02:57:11;3.85;;;1.48;;
1452;SDS011;720;47.738;7.998;2024-02-14T02:59:38;1.25;;;1.08;;
1452;SDS011;720;47.738;7.998;2024-02-14T03:02:08;1.25;;;1.15;;
1452;SDS011;720;47.738;7.998;2024-02-14T03:04:35;3.28;;;1.35;;
1452;SDS011;720;47.738;7.998;2024-02-14T03:07:00;1.27;;;1.17;;
1452;SDS011;720;47.738;7.998;2024-02-14T03:09:31;1.58;;;1.25;;
1452;SDS011;720;47.738;7.998;2024-02-14T03:12:01;1.45;;;1.08;;
1452;SDS011;720;47.738;7.998;2024-02-14T03:14:31;1.60;;;0.98;;
1452;SDS011;720;47.738;7.998;2024-02-14T03:17:00;1.27;;;1.17;;
1452;SDS011;720;47.738;7.998;2024-02-14T03:19:26;0.60;;;0.60;;
1452;SDS011;720;47.738;7.998;2024-02-14T03:21:56;2.70;;;0.80;;
1452;SDS011;720;47.738;7.998;2024-02-14T03:24:22;2.88;;;1.00;;
1452;SDS011;720;47.738;7.998;2024-02-14T03:26:51;1.30;;;1.15;;
1452;SDS011;720;47.738;7.998;2024-02-14T03:29:18;1.50;;;1.05;;
1452;SDS011;720;47.738;7.998;2024-02-14T03:31:47;2.75;;;0.80;;
1452;SDS011;720;47.738;7.998;2024-02-14T03:34:13;1.23;;;1.17;;
1452;SDS011;720;47.738;7.998;2024-02-14T03:36:39;1.85;;;1.75;;
1452;SDS011;720;47.738;7.998;2024-02-14T03:39:05;0.80;;;0.80;;
1452;SDS011;720;47.738;7.998;2024-02-14T03:41:31;1.67;;;1.55;;
1452;SDS011;720;47.738;7.998;2024-02-14T03:43:57;2.20;;;1.77;;
1452;SDS011;720;47.738;7.998;2024-02-14T03:46:26;3.15;;;1.50;;
1452;SDS011;720;47.738;7.998;2024-02-14T03:48:52;1.70;;;1.60;;
1452;SDS011;720;47.738;7.998;2024-02-14T03:51:19;0.80;;;0.80;;
1452;SDS011;720;47.738;7.998;2024-02-14T03:53:44;0.80;;;0.80;;
1452;SDS011;720;47.738;7.998;2024-02-14T03:56:10;2.30;;;0.90;;
1452;SDS011;720;47.738;7.998;2024-02-14T03:58:37;2.78;;;1.20;;
1452;SDS011;720;47.738;7.998;2024-02-14T04:01:04;2.35;;;1.40;;
1452;SDS011;720;47.738;7.998;2024-02-14T04:03:29;1.15;;;0.93;;
1452;SDS011;720;47.738;7.998;2024-02-14T04:05:55;1.10;;;0.80;;
1452;SDS011;720;47.738;7.998;2024-02-14T04:08:21;1.70;;;0.93;;
1452;SDS011;720;47.738;7.998;2024-02-14T04:10:47;1.00;;;1.00;;
1452;SDS011;720;47.738;7.998;2024-02-14T04:13:14;0.80;;;0.80;;
1452;SDS011;720;47.738;7.998;2024-02-14T04:15:40;0.77;;;0.77;;
1452;SDS011;720;47.738;7.998;2024-02-14T04:18:07;1.77;;;1.00;;
1452;SDS011;720;47.738;7.998;2024-02-14T04:20:33;1.87;;;1.23;;
1452;SDS011;720;47.738;7.998;2024-02-14T04:22:59;0.82;;;0.82;;
1452;SDS011;720;47.738;7.998;2024-02-14T04:25:25;0.90;;;0.90;;
1452;SDS011;720;47.738;7.998;2024-02-14T04:27:51;1.07;;;0.90;;
1452;SDS011;720;47.738;7.998;2024-02-14T04:30:16;2.50;;;1.17;;
1452;SDS011;720;47.738;7.998;2024-02-14T04:32:42;1.37;;;1.17;;
1452;SDS011;720;47.738;7.998;2024-02-14T04:35:08;1.35;;;1.10;;
1452;SDS011;720;47.738;7.998;2024-02-14T04:37:34;1.63;;;1.45;;
1452;SDS011;720;47.738;7.998;2024-02-14T04:40:01;1.70;;;1.05;;
1452;SDS011;720;47.738;7.998;2024-02-14T04:42:29;1.08;;;0.98;;
1452;SDS011;720;47.738;7.998;2024-02-14T04:44:55;1.10;;;1.10;;
1452;SDS011;720;47.738;7.998;2024-02-14T04:47:21;1.03;;;1.00;;
1452;SDS011;720;47.738;7.998;2024-02-14T04:49:47;3.22;;;1.75;;
1452;SDS011;720;47.738;7.998;2024-02-14T04:52:12;1.87;;;1.30;;
1452;SDS011;720;47.738;7.998;2024-02-14T04:54:38;4.07;;;1.30;;
1452;SDS011;720;47.738;7.998;2024-02-14T04:57:04;1.87;;;1.73;;
1452;SDS011;720;47.738;7.998;2024-02-14T04:59:30;1.43;;;1.30;;
1452;SDS011;720;47.738;7.998;2024-02-14T05:01:55;1.63;;;1.23;;
1452;SDS011;720;47.738;7.998;2024-02-14T05:04:21;1.73;;;1.20;;
1452;SDS011;720;47.738;7.998;2024-02-14T05:06:47;1.60;;;1.48;;
1452;SDS011;720;47.738;7.998;2024-02-14T05:09:15;4.75;;;1.92;;
1452;SDS011;720;47.738;7.998;2024-02-14T05:11:40;1.25;;;0.93;;
1452;SDS011;720;47.738;7.998;2024-02-14T05:14:06;1.63;;;1.53;;
1452;SDS011;720;47.738;7.998;2024-02-14T05:16:32;1.00;;;1.00;;
1452;SDS011;720;47.738;7.998;2024-02-14T05:18:58;1.90;;;1.00;;
1452;SDS011;720;47.738;7.998;2024-02-14T05:21:23;0.97;;;0.90;;
1452;SDS011;720;47.738;7.998;2024-02-14T05:23:49;0.90;;;0.90;;
1452;SDS011;720;47.738;7.998;2024-02-14T05:26:15;1.77;;;1.40;;
1452;SDS011;720;47.738;7.998;2024-02-14T05:28:41;2.30;;;1.27;;
1452;SDS011;720;47.738;7.998;2024-02-14T05:31:07;3.97;;;1.80;;
1452;SDS011;720;47.738;7.998;2024-02-14T05:33:33;1.93;;;1.80;;
1452;SDS011;720;47.738;7.998;2024-02-14T05:35:58;1.60;;;1.50;;
1452;SDS011;720;47.738;7.998;2024-02-14T05:38:24;1.83;;;1.53;;
1452;SDS011;720;47.738;7.998;2024-02-14T05:40:50;1.80;;;0.97;;
1452;SDS011;720;47.738;7.998;2024-02-14T05:43:15;1.30;;;0.93;;
1452;SDS011;720;47.738;7.998;2024-02-14T05:45:42;0.80;;;0.80;;
1452;SDS011;720;47.738;7.998;2024-02-14T05:48:08;0.83;;;0.80;;
1452;SDS011;720;47.738;7.998;2024-02-14T05:50:34;1.80;;;1.47;;
1452;SDS011;720;47.738;7.998;2024-02-14T05:52:59;1.57;;;1.20;;
1452;SDS011;720;47.738;7.998;2024-02-14T05:55:25;1.35;;;1.25;;
1452;SDS011;720;47.738;7.998;2024-02-14T05:57:51;1.63;;;1.53;;
1452;SDS011;720;47.738;7.998;2024-02-14T06:00:17;3.72;;;1.38;;
1452;SDS011;720;47.738;7.998;2024-02-14T06:02:49;3.00;;;2.80;;
1452;SDS011;720;47.738;7.998;2024-02-14T06:05:15;2.75;;;2.05;;
1452;SDS011;720;47.738;7.998;2024-02-14T06:07:41;1.00;;;1.00;;
1452;SDS011;720;47.738;7.998;2024-02-14T06:10:10;2.65;;;1.42;;
1452;SDS011;720;47.738;7.998;2024-02-14T06:12:36;1.95;;;0.82;;
1452;SDS011;720;47.738;7.998;2024-02-14T06:15:02;1.80;;;1.20;;
1452;SDS011;720;47.738;7.998;2024-02-14T06:17:28;2.25;;;1.08;;
1452;SDS011;720;47.738;7.998;2024-02-14T06:19:53;2.50;;;1.37;;
1452;SDS011;720;47.738;7.998;2024-02-14T06:22:19;2.40;;;1.73;;
1452;SDS011;720;47.738;7.998;2024-02-14T06:24:46;2.28;;;1.73;;
1452;SDS011;720;47.738;7.998;2024-02-14T06:27:15;1.38;;;1.27;;
1452;SDS011;720;47.738;7.998;2024-02-14T06:29:42;0.93;;;0.93;;
1452;SDS011;720;47.738;7.998;2024-02-14T06:32:09;4.40;;;1.45;;
1452;SDS011;720;47.738;7.998;2024-02-14T06:34:36;1.63;;;1.25;;
1452;SDS011;720;47.738;7.998;2024-02-14T06:37:02;1.80;;;1.20;;
1452;SDS011;720;47.738;7.998;2024-02-14T06:39:27;3.10;;;1.43;;
1452;SDS011;720;47.738;7.998;2024-02-14T06:41:53;3.50;;;1.27;;
1452;SDS011;720;47.738;7.998;2024-02-14T06:44:18;1.20;;;1.10;;
1452;SDS011;720;47.738;7.998;2024-02-14T06:46:44;1.40;;;1.00;;
1452;SDS011;720;47.738;7.998;2024-02-14T06:49:10;0.83;;;0.83;;
1452;SDS011;720;47.738;7.998;2024-02-14T06:51:35;1.13;;;0.70;;
1452;SDS011;720;47.738;7.998;2024-02-14T06:54:01;2.20;;;1.50;;
1452;SDS011;720;47.738;7.998;2024-02-14T06:56:29;1.13;;;0.90;;
1452;SDS011;720;47.738;7.998;2024-02-14T06:58:55;1.48;;;1.38;;
1452;SDS011;720;47.738;7.998;2024-02-14T07:01:25;1.75;;;1.30;;
1452;SDS011;720;47.738;7.998;2024-02-14T07:03:51;4.90;;;1.10;;
1452;SDS011;720;47.738;7.998;2024-02-14T07:06:18;3.38;;;1.05;;
1452;SDS011;720;47.738;7.998;2024-02-14T07:08:43;1.70;;;1.50;;
1452;SDS011;720;47.738;7.998;2024-02-14T07:11:09;3.23;;;1.60;;
1452;SDS011;720;47.738;7.998;2024-02-14T07:13:35;1.60;;;1.50;;
1452;SDS011;720;47.738;7.998;2024-02-14T07:16:00;4.17;;;1.60;;
1452;SDS011;720;47.738;7.998;2024-02-14T07:18:26;5.10;;;2.13;;
1452;SDS011;720;47.738;7.998;2024-02-14T07:20:51;2.70;;;2.10;;
1452;SDS011;720;47.738;7.998;2024-02-14T07:23:18;2.37;;;1.93;;
1452;SDS011;720;47.738;7.998;2024-02-14T07:25:44;2.63;;;1.35;;
1452;SDS011;720;47.738;7.998;2024-02-14T07:28:10;1.43;;;1.10;;
1452;SDS011;720;47.738;7.998;2024-02-14T07:30:35;1.10;;;0.90;;
1452;SDS011;720;47.738;7.998;2024-02-14T07:33:01;1.90;;;1.13;;
1452;SDS011;720;47.738;7.998;2024-02-14T07:35:27;9.63;;;2.53;;
1452;SDS011;720;47.738;7.998;2024-02-14T07:37:53;3.92;;;2.10;;
1452;SDS011;720;47.738;7.998;2024-02-14T07:40:20;2.80;;;2.13;;
1452;SDS011;720;47.738;7.998;2024-02-14T07:42:46;2.10;;;1.67;;
1452;SDS011;720;47.738;7.998;2024-02-14T07:45:12;1.23;;;1.13;;
1452;SDS011;720;47.738;7.998;2024-02-14T07:47:38;2.10;;;1.57;;
1452;SDS011;720;47.738;7.998;2024-02-14T07:50:05;2.22;;;1.80;;
1452;SDS011;720;47.738;7.998;2024-02-14T07:52:31;2.30;;;1.75;;
1452;SDS011;720;47.738;7.998;2024-02-14T07:54:57;3.20;;;1.63;;
1452;SDS011;720;47.738;7.998;2024-02-14T07:57:23;3.73;;;2.07;;
1452;SDS011;720;47.738;7.998;2024-02-14T07:59:49;1.70;;;1.50;;
1452;SDS011;720;47.738;7.998;2024-02-14T08:02:16;1.40;;;1.15;;
1452;SDS011;720;47.738;7.998;2024-02-14T08:04:42;1.38;;;1.30;;
1452;SDS011;720;47.738;7.998;2024-02-14T08:07:08;1.47;;;1.37;;
1452;SDS011;720;47.738;7.998;2024-02-14T08:09:34;2.03;;;1.05;;
1452;SDS011;720;47.738;7.998;2024-02-14T08:12:00;5.53;;;2.80;;
1452;SDS011;720;47.738;7.998;2024-02-14T08:14:26;4.40;;;1.57;;
1452;SDS011;720;47.738;7.998;2024-02-14T08:16:52;2.00;;;1.30;;
1452;SDS011;720;47.738;7.998;2024-02-14T08:19:18;1.47;;;1.17;;
1452;SDS011;720;47.738;7.998;2024-02-14T08:21:44;2.20;;;1.70;;
1452;SDS011;720;47.738;7.998;2024-02-14T08:24:10;1.50;;;1.40;;
1452;SDS011;720;47.738;7.998;2024-02-14T08:26:35;4.17;;;2.67;;
1452;SDS011;720;47.738;7.998;2024-02-14T08:29:01;5.30;;;2.93;;
1452;SDS011;720;47.738;7.998;2024-02-14T08:31:28;9.65;;;5.30;;
1452;SDS011;720;47.738;7.998;2024-02-14T08:33:54;4.73;;;4.27;;
1452;SDS011;720;47.738;7.998;2024-02-14T08:36:20;5.20;;;3.40;;
1452;SDS011;720;47.738;7.998;2024-02-14T08:38:45;5.40;;;3.70;;
1452;SDS011;720;47.738;7.998;2024-02-14T08:41:11;6.37;;;4.30;;
1452;SDS011;720;47.738;7.998;2024-02-14T08:43:37;9.43;;;4.05;;
1452;SDS011;720;47.738;7.998;2024-02-14T08:46:03;4.27;;;3.47;;
1452;SDS011;720;47.738;7.998;2024-02-14T08:48:34;9.05;;;4.30;;
1452;SDS011;720;47.738;7.998;2024-02-14T08:51:00;7.35;;;5.00;;
1452;SDS011;720;47.738;7.998;2024-02-14T08:53:25;4.13;;;3.27;;
1452;SDS011;720;47.738;7.998;2024-02-14T08:55:52;6.07;;;5.45;;
1452;SDS011;720;47.738;7.998;2024-02-14T08:58:17;8.90;;;6.40;;
1452;SDS011;720;47.738;7.998;2024-02-14T09:00:43;8.47;;;7.00;;
1452;SDS011;720;47.738;7.998;2024-02-14T09:03:09;10.33;;;5.27;;
1452;SDS011;720;47.738;7.998;2024-02-14T09:05:34;6.23;;;4.00;;
1452;SDS011;720;47.738;7.998;2024-02-14T09:08:00;5.25;;;4.22;;
1452;SDS011;720;47.738;7.998;2024-02-14T09:10:26;3.73;;;3.20;;
1452;SDS011;720;47.738;7.998;2024-02-14T09:12:52;5.07;;;4.23;;
1452;SDS011;720;47.738;7.998;2024-02-14T09:15:18;3.53;;;3.30;;
1452;SDS011;720;47.738;7.998;2024-02-14T09:17:44;3.40;;;3.00;;
1452;SDS011;720;47.738;7.998;2024-02-14T09:20:10;3.80;;;3.33;;
1452;SDS011;720;47.738;7.998;2024-02-14T09:22:39;2.42;;;2.33;;
1452;SDS011;720;47.738;7.998;2024-02-14T09:25:06;3.03;;;2.57;;
1452;SDS011;720;47.738;7.998;2024-02-14T09:27:34;2.73;;;2.53;;
1452;SDS011;720;47.738;7.998;2024-02-14T09:30:01;2.47;;;2.27;;
1452;SDS011;720;47.738;7.998;2024-02-14T09:32:32;3.60;;;2.73;;
1452;SDS011;720;47.738;7.998;2024-02-14T09:34:58;3.27;;;2.60;;
1452;SDS011;720;47.738;7.998;2024-02-14T09:37:25;1.90;;;1.67;;
1452;SDS011;720;47.738;7.998;2024-02-14T09:39:51;4.10;;;1.48;;
1452;SDS011;720;47.738;7.998;2024-02-14T09:42:17;1.90;;;1.40;;
1452;SDS011;720;47.738;7.998;2024-02-14T09:44:48;1.80;;;1.27;;
1452;SDS011;720;47.738;7.998;2024-02-14T09:47:17;2.07;;;1.83;;
1452;SDS011;720;47.738;7.998;2024-02-14T09:49:44;1.30;;;1.13;;
1452;SDS011;720;47.738;7.998;2024-02-14T09:52:11;1.20;;;1.10;;
1452;SDS011;720;47.738;7.998;2024-02-14T09:54:38;2.03;;;1.27;;
1452;SDS011;720;47.738;7.998;2024-02-14T09:57:04;1.63;;;1.40;;
1452;SDS011;720;47.738;7.998;2024-02-14T09:59:30;1.70;;;1.53;;
1452;SDS011;720;47.738;7.998;2024-02-14T10:01:57;1.67;;;1.17;;
1452;SDS011;720;47.738;7.998;2024-02-14T10:04:22;3.47;;;1.60;;
1452;SDS011;720;47.738;7.998;2024-02-14T10:06:50;5.50;;;2.37;;
1452;SDS011;720;47.738;7.998;2024-02-14T10:09:22;4.43;;;1.80;;
1452;SDS011;720;47.738;7.998;2024-02-14T10:11:48;1.70;;;1.60;;
1452;SDS011;720;47.738;7.998;2024-02-14T10:14:14;1.13;;;1.13;;
1452;SDS011;720;47.738;7.998;2024-02-14T10:16:40;3.97;;;1.47;;
1452;SDS011;720;47.738;7.998;2024-02-14T10:19:14;1.30;;;1.20;;
1452;SDS011;720;47.738;7.998;2024-02-14T10:21:43;1.10;;;0.80;;
1452;SDS011;720;47.738;7.998;2024-02-14T10:24:09;1.20;;;1.10;;
1452;SDS011;720;47.738;7.998;2024-02-14T10:26:36;1.50;;;1.05;;
1452;SDS011;720;47.738;7.998;2024-02-14T10:29:02;1.55;;;1.30;;
1452;SDS011;720;47.738;7.998;2024-02-14T10:31:28;0.90;;;0.90;;
1452;SDS011;720;47.738;7.998;2024-02-14T10:33:54;1.43;;;1.33;;
1452;SDS011;720;47.738;7.998;2024-02-14T10:36:23;1.45;;;1.35;;
1452;SDS011;720;47.738;7.998;2024-02-14T10:38:50;3.00;;;2.03;;
1452;SDS011;720;47.738;7.998;2024-02-14T10:41:16;0.83;;;0.80;;
1452;SDS011;720;47.738;7.998;2024-02-14T10:43:42;1.10;;;0.90;;
1452;SDS011;720;47.738;7.998;2024-02-14T10:46:15;1.80;;;1.00;;
1452;SDS011;720;47.738;7.998;2024-02-14T10:48:52;1.00;;;0.90;;
1452;SDS011;720;47.738;7.998;2024-02-14T10:51:21;2.20;;;1.67;;
1452;SDS011;720;47.738;7.998;2024-02-14T10:53:47;3.67;;;2.40;;
1452;SDS011;720;47.738;7.998;2024-02-14T10:56:17;13.83;;;7.33;;
1452;SDS011;720;47.738;7.998;2024-02-14T10:58:47;7.13;;;6.43;;
1452;SDS011;720;47.738;7.998;2024-02-14T11:01:14;6.00;;;5.47;;
1452;SDS011;720;47.738;7.998;2024-02-14T11:03:43;2.77;;;2.53;;
1452;SDS011;720;47.738;7.998;2024-02-14T11:06:14;2.10;;;2.00;;
1452;SDS011;720;47.738;7.998;2024-02-14T11:08:42;2.03;;;1.93;;
1452;SDS011;720;47.738;7.998;2024-02-14T11:11:18;1.57;;;1.47;;
1452;SDS011;720;47.738;7.998;2024-02-14T11:13:44;2.23;;;1.33;;
1452;SDS011;720;47.738;7.998;2024-02-14T11:16:09;2.00;;;1.40;;
1452;SDS011;720;47.738;7.998;2024-02-14T11:18:35;0.90;;;0.77;;
1452;SDS011;720;47.738;7.998;2024-02-14T11:21:15;2.73;;;2.53;;
1452;SDS011;720;47.738;7.998;2024-02-14T11:23:52;3.30;;;2.13;;
1452;SDS011;720;47.738;7.998;2024-02-14T11:26:19;3.55;;;2.25;;
1452;SDS011;720;47.738;7.998;2024-02-14T11:28:45;3.10;;;2.80;;
1452;SDS011;720;47.738;7.998;2024-02-14T11:31:16;1.30;;;1.20;;
1452;SDS011;720;47.738;7.998;2024-02-14T11:33:42;1.63;;;1.35;;
1452;SDS011;720;47.738;7.998;2024-02-14T11:36:11;0.82;;;0.82;;
1452;SDS011;720;47.738;7.998;2024-02-14T11:38:40;1.27;;;1.10;;
1452;SDS011;720;47.738;7.998;2024-02-14T11:41:06;2.33;;;1.77;;
1452;SDS011;720;47.738;7.998;2024-02-14T11:43:31;1.93;;;1.47;;
1452;SDS011;720;47.738;7.998;2024-02-14T11:45:57;0.93;;;0.93;;
1452;SDS011;720;47.738;7.998;2024-02-14T11:48:23;0.70;;;0.50;;
1452;SDS011;720;47.738;7.998;2024-02-14T11:50:49;1.53;;;0.90;;
1452;SDS011;720;47.738;7.998;2024-02-14T11:53:18;1.07;;;1.03;;
1452;SDS011;720;47.738;7.998;2024-02-14T11:55:44;3.00;;;2.30;;
1452;SDS011;720;47.738;7.998;2024-02-14T11:58:14;2.30;;;1.27;;
1452;SDS011;720;47.738;7.998;2024-02-14T12:00:41;7.28;;;2.15;;
1452;SDS011;720;47.738;7.998;2024-02-14T12:03:10;1.10;;;1.00;;
1452;SDS011;720;47.738;7.998;2024-02-14T12:05:47;0.80;;;0.80;;
1452;SDS011;720;47.738;7.998;2024-02-14T12:08:15;0.70;;;0.60;;
1452;SDS011;720;47.738;7.998;2024-02-14T12:10:44;1.13;;;1.03;;
1452;SDS011;720;47.738;7.998;2024-02-14T12:13:17;0.77;;;0.77;;
1452;SDS011;720;47.738;7.998;2024-02-14T12:15:46;2.08;;;0.90;;
1452;SDS011;720;47.738;7.998;2024-02-14T12:18:13;2.17;;;1.20;;
1452;SDS011;720;47.738;7.998;2024-02-14T12:20:39;1.63;;;0.70;;
1452;SDS011;720;47.738;7.998;2024-02-14T12:23:06;1.50;;;1.00;;
1452;SDS011;720;47.738;7.998;2024-02-14T12:25:32;1.57;;;0.97;;
1452;SDS011;720;47.738;7.998;2024-02-14T12:27:58;0.70;;;0.70;;
1452;SDS011;720;47.738;7.998;2024-02-14T12:33:10;3.83;;;1.10;;
1452;SDS011;720;47.738;7.998;2024-02-14T12:35:36;0.82;;;0.82;;
1452;SDS011;720;47.738;7.998;2024-02-14T12:38:07;1.80;;;1.70;;
1452;SDS011;720;47.738;7.998;2024-02-14T12:40:36;1.13;;;1.03;;
1452;SDS011;720;47.738;7.998;2024-02-14T12:43:03;1.43;;;1.20;;
1452;SDS011;720;47.738;7.998;2024-02-14T12:45:31;1.40;;;1.30;;
1452;SDS011;720;47.738;7.998;2024-02-14T12:47:56;1.37;;;1.17;;
1452;SDS011;720;47.738;7.998;2024-02-14T12:50:22;1.47;;;1.37;;
1452;SDS011;720;47.738;7.998;2024-02-14T12:52:48;1.00;;;1.00;;
1452;SDS011;720;47.738;7.998;2024-02-14T12:55:14;1.37;;;1.27;;
1452;SDS011;720;47.738;7.998;2024-02-14T12:57:40;1.80;;;1.70;;
1452;SDS011;720;47.738;7.998;2024-02-14T13:00:06;1.47;;;1.30;;
1452;SDS011;720;47.738;7.998;2024-02-14T13:02:34;3.53;;;1.63;;
1452;SDS011;720;47.738;7.998;2024-02-14T13:05:00;1.00;;;1.00;;
1452;SDS011;720;47.738;7.998;2024-02-14T13:07:27;1.87;;;1.10;;
1452;SDS011;720;47.738;7.998;2024-02-14T13:09:53;1.23;;;1.10;;
1452;SDS011;720;47.738;7.998;2024-02-14T13:12:20;2.23;;;1.37;;
1452;SDS011;720;47.738;7.998;2024-02-14T13:14:46;1.23;;;1.13;;
1452;SDS011;720;47.738;7.998;2024-02-14T13:17:12;1.13;;;1.07;;
1452;SDS011;720;47.738;7.998;2024-02-14T13:19:38;1.83;;;1.30;;
1452;SDS011;720;47.738;7.998;2024-02-14T13:22:04;1.03;;;1.00;;
1452;SDS011;720;47.738;7.998;2024-02-14T13:24:30;1.17;;;1.00;;
1452;SDS011;720;47.738;7.998;2024-02-14T13:26:56;1.57;;;1.00;;
1452;SDS011;720;47.738;7.998;2024-02-14T13:29:25;2.93;;;1.30;;
1452;SDS011;720;47.738;7.998;2024-02-14T13:31:51;1.53;;;1.43;;
1452;SDS011;720;47.738;7.998;2024-02-14T13:34:17;1.10;;;1.10;;
1452;SDS011;720;47.738;7.998;2024-02-14T13:36:48;1.20;;;1.17;;
1452;SDS011;720;47.738;7.998;2024-02-14T13:39:14;1.40;;;1.27;;
1452;SDS011;720;47.738;7.998;2024-02-14T13:41:40;0.67;;;0.67;;
1452;SDS011;720;47.738;7.998;2024-02-14T13:44:09;0.70;;;0.70;;
1452;SDS011;720;47.738;7.998;2024-02-14T13:46:34;0.50;;;0.50;;
1452;SDS011;720;47.738;7.998;2024-02-14T13:49:00;1.17;;;1.03;;
1452;SDS011;720;47.738;7.998;2024-02-14T13:51:26;0.87;;;0.60;;
1452;SDS011;720;47.738;7.998;2024-02-14T13:53:52;0.70;;;0.60;;
1452;SDS011;720;47.738;7.998;2024-02-14T13:56:18;1.13;;;0.90;;
1452;SDS011;720;47.738;7.998;2024-02-14T13:58:47;0.67;;;0.60;;
1452;SDS011;720;47.738;7.998;2024-02-14T14:01:14;1.17;;;0.70;;
1452;SDS011;720;47.738;7.998;2024-02-14T14:03:40;1.20;;;0.90;;
1452;SDS011;720;47.738;7.998;2024-02-14T14:06:06;1.53;;;1.13;;
1452;SDS011;720;47.738;7.998;2024-02-14T14:08:35;1.83;;;1.60;;
1452;SDS011;720;47.738;7.998;2024-02-14T14:11:04;0.80;;;0.73;;
1452;SDS011;720;47.738;7.998;2024-02-14T14:13:31;0.60;;;0.60;;
1452;SDS011;720;47.738;7.998;2024-02-14T14:15:58;2.93;;;0.93;;
1452;SDS011;720;47.738;7.998;2024-02-14T14:18:24;1.77;;;1.03;;
1452;SDS011;720;47.738;7.998;2024-02-14T14:20:50;1.13;;;1.00;;
1452;SDS011;720;47.738;7.998;2024-02-14T14:23:16;1.00;;;0.90;;
1452;SDS011;720;47.738;7.998;2024-02-14T14:25:42;1.30;;;0.70;;
1452;SDS011;720;47.738;7.998;2024-02-14T14:28:08;1.50;;;0.80;;
1452;SDS011;720;47.738;7.998;2024-02-14T14:30:35;0.83;;;0.70;;
1452;SDS011;720;47.738;7.998;2024-02-14T14:33:01;0.77;;;0.70;;
1452;SDS011;720;47.738;7.998;2024-02-14T14:35:28;1.53;;;1.00;;
1452;SDS011;720;47.738;7.998;2024-02-14T14:37:58;1.00;;;0.60;;
1452;SDS011;720;47.738;7.998;2024-02-14T14:40:30;2.33;;;1.10;;
1452;SDS011;720;47.738;7.998;2024-02-14T14:42:56;0.70;;;0.60;;
1452;SDS011;720;47.738;7.998;2024-02-14T14:45:22;0.60;;;0.50;;
1452;SDS011;720;47.738;7.998;2024-02-14T14:47:47;0.67;;;0.60;;
1452;SDS011;720;47.738;7.998;2024-02-14T14:50:14;0.73;;;0.73;;
1452;SDS011;720;47.738;7.998;2024-02-14T14:52:44;3.30;;;0.80;;
1452;SDS011;720;47.738;7.998;2024-02-14T14:55:10;0.50;;;0.50;;
1452;SDS011;720;47.738;7.998;2024-02-14T14:57:36;1.47;;;0.97;;
1452;SDS011;720;47.738;7.998;2024-02-14T15:00:08;0.90;;;0.80;;
1452;SDS011;720;47.738;7.998;2024-02-14T15:02:38;1.90;;;0.90;;
1452;SDS011;720;47.738;7.998;2024-02-14T15:05:06;0.97;;;0.93;;
1452;SDS011;720;47.738;7.998;2024-02-14T15:07:34;1.10;;;0.90;;
1452;SDS011;720;47.738;7.998;2024-02-14T15:09:59;1.83;;;1.73;;
1452;SDS011;720;47.738;7.998;2024-02-14T15:12:25;1.13;;;0.70;;
1452;SDS011;720;47.738;7.998;2024-02-14T15:14:51;1.43;;;1.33;;
1452;SDS011;720;47.738;7.998;2024-02-14T15:17:18;0.83;;;0.83;;
1452;SDS011;720;47.738;7.998;2024-02-14T15:19:45;1.70;;;1.10;;
1452;SDS011;720;47.738;7.998;2024-02-14T15:22:11;1.13;;;1.03;;
1452;SDS011;720;47.738;7.998;2024-02-14T15:24:36;1.33;;;1.23;;
1452;SDS011;720;47.738;7.998;2024-02-14T15:27:04;0.77;;;0.77;;
1452;SDS011;720;47.738;7.998;2024-02-14T15:29:30;1.13;;;1.10;;